Detroit Metropolitan Wayne County Airport
KDTW : now visible

Airfield :











YOU CAN JOIN US ON...

 
LOGIN :

Register | Disclaimer

   EN    FR    IT 

 









Legend :    VFR   Marginal VFR   IFR   Intensive IFR   Very Intensive IFR
Visi :
Ceiling :
>= 8 km
>= 3000ft
5 to 8 km
1000 to 3000 ft
1500m to 5 km
500 to 1000 ft
800 to 1500m
200 to 500 ft
< 800m
< 200 ft
Symbols :   Thunderstorms  Fog  Heavy snow  Heavy precipitations  Wind > 20 kt






- Airport Elevation : 645 ft
- IATA code : DTW


KDTW - Detroit Metropolitan Wayne County

CURRENT METAR :
  • 142053Z 27010KT 4SM HZ OVC075 04/M01 A2959 RMK AO2 SLP024 T00441006 53007

EXPIRED METARs :
  • 141953Z 29010KT 4SM HZ SCT080 BKN200 05/M01 A2957 RMK AO2 SLP020 T00501011
  • 141853Z 28010KT 4SM HZ FEW016 BKN080 OVC200 05/M01 A2956 RMK AO2 SLP016 T00501011

TAF KDTW
Valid from the 14 at 18:00 until the 16 at 00:00 UTC


141724Z 1418/1524 32006KT 5SM HZ SCT035 BKN070
FM150100 29008KT 5SM BR SCT010 OVC020
FM150400 26012KT P6SM OVC010
TEMPO 1506/1510 3SM -SHSN OVC007
FM151200 27012KT P6SM SCT015 OVC025
FM151800 26008KT P6SM BKN030



MET'MAP, your aeronautical weather chart ! - Copyright ORBIFLY December 2007 - Disclaimer

ORBIFLY MET'MAP TEAM :

Programming & Development : Alexandra Zaïnal
Concept & original design : Baudouin d'Aumeries
Assistance for programming : Marc-Olivier Méhu
Technical & hardware support : Manuel Goepfert

Contact : metmap@orbifly.com




SOURCES & CREDITS :

   NOAA       Earth
Advisory